SAVT/REL METAR and TAF weather

Enter ICAO airport designator
Station Type Date Time Source
SAVT METAR 2022/12/09 22:57 UTC NOAA

SAVT 092257Z 15009KT 110V200 CAVOK 22/05 Q1006


Station Type Date Time Source
SAVT Decoded METAR 2022/12/09 22:57 UTC NOAA

Trelew Aerodrome, Argentina (SAVT) 43-12S 065-16W 43M
Dec 09, 2022 - 05:57 PM EST / 2022.12.09 2257 UTC
Wind: from the SSE (150 degrees) at 10 MPH (9 KT) (direction variable):0
Visibility: greater than 7 mile(s):0
Temperature: 71 F (22 C)
Dew Point: 41 F (5 C)
Relative Humidity: 32%
Pressure (altimeter): 29.71 in. Hg (1006 hPa)
ob: SAVT 092257Z 15009KT 110V200 CAVOK 22/05 Q1006
cycle: 23

Station Type Date Time Source
SAVT TAF 2022/12/01 12:09 UTC NOAA

TAF TAF SAVT 011100Z 0112/0212 34010KT CAVOK TX30/0118Z TN14/0112Z
BECMG 0113/0115 02015G30KT
BECMG 0203/0205 27010KT SCT030

Example: see airport list